Time;durP1;ratioP1;P1;durP2;ratioP2;P2;SDS_P1;SDS_P2;PMS_P1;PMS_P2;Temp;Humidity;BMP_temperature;BMP_pressure;BME280_temperature;BME280_humidity;BME280_pressure;Samples;Min_cycle;Max_cycle;Signal;HPM_P1;HPM_P2
2023/05/15 00:00:25;;;;;;;3.80;2.80;;;10.70;99.90;;;;;;5102887;28;20388;-83
2023/05/15 00:02:51;;;;;;;4.53;2.60;;;10.80;99.90;;;;;;5121812;28;20417;-83
2023/05/15 00:05:16;;;;;;;3.53;2.92;;;10.80;99.90;;;;;;5121662;28;20796;-80
2023/05/15 00:07:42;;;;;;;3.63;3.10;;;10.80;99.90;;;;;;5121524;28;20404;-83
2023/05/15 00:10:08;;;;;;;3.03;2.65;;;10.70;99.90;;;;;;5121373;28;20388;-83
2023/05/15 00:12:34;;;;;;;3.15;2.90;;;10.60;99.90;;;;;;5101985;28;20459;-81
2023/05/15 00:14:59;;;;;;;2.93;2.73;;;10.60;99.90;;;;;;5119946;28;20384;-83
2023/05/15 00:17:25;;;;;;;4.20;2.70;;;10.60;99.90;;;;;;5118417;28;20394;-83
2023/05/15 00:19:53;;;;;;;3.20;3.00;;;10.60;99.90;;;;;;5120027;28;20466;-82
2023/05/15 00:22:19;;;;;;;4.18;2.80;;;10.60;99.90;;;;;;5119685;28;20475;-83
2023/05/15 00:24:44;;;;;;;3.30;3.00;;;10.70;99.90;;;;;;5105714;28;20392;-81
2023/05/15 00:27:10;;;;;;;4.73;3.00;;;10.60;99.90;;;;;;5103064;28;20421;-82
2023/05/15 00:29:35;;;;;;;3.27;2.50;;;10.60;99.90;;;;;;5102283;28;20380;-83
2023/05/15 00:32:01;;;;;;;5.23;3.10;;;10.60;99.90;;;;;;5122140;28;20376;-83
2023/05/15 00:34:26;;;;;;;2.90;2.67;;;10.70;99.90;;;;;;5120547;28;20742;-82
2023/05/15 00:36:52;;;;;;;3.00;2.70;;;10.60;99.90;;;;;;5120865;28;20380;-83
2023/05/15 00:39:17;;;;;;;3.70;3.40;;;10.60;99.90;;;;;;5120570;28;20395;-83
2023/05/15 00:41:45;;;;;;;3.70;2.70;;;10.60;99.90;;;;;;5120639;28;20539;-83
2023/05/15 00:44:11;;;;;;;4.20;2.60;;;10.60;99.90;;;;;;5120328;28;20381;-83
2023/05/15 00:46:38;;;;;;;2.90;2.60;;;10.70;99.90;;;;;;5100525;28;20422;-82
2023/05/15 00:49:05;;;;;;;2.40;2.20;;;10.60;99.90;;;;;;5100724;28;20377;-82
2023/05/15 00:51:31;;;;;;;4.97;3.45;;;10.60;99.90;;;;;;5119252;28;20379;-82
2023/05/15 00:53:58;;;;;;;3.25;2.78;;;10.70;99.90;;;;;;5101056;28;20392;-83
2023/05/15 00:56:24;;;;;;;3.10;2.90;;;10.60;99.90;;;;;;5118395;28;20391;-81
2023/05/15 00:58:50;;;;;;;3.30;3.00;;;10.70;99.90;;;;;;5099761;28;20380;-83
2023/05/15 01:01:17;;;;;;;3.80;3.05;;;10.70;99.90;;;;;;5116189;28;20449;-83
2023/05/15 01:03:43;;;;;;;2.92;2.72;;;10.70;99.90;;;;;;5120222;28;20463;-82
2023/05/15 01:06:09;;;;;;;4.07;3.10;;;10.80;99.90;;;;;;5097807;28;20894;-83
2023/05/15 01:08:49;;;;;;;4.37;2.87;;;10.80;99.90;;;;;;5100072;28;20376;-83
2023/05/15 01:11:16;;;;;;;3.70;2.88;;;10.80;99.90;;;;;;5118168;28;20449;-83
2023/05/15 01:13:42;;;;;;;4.22;3.10;;;10.80;99.90;;;;;;5100318;28;20400;-83
2023/05/15 01:16:08;;;;;;;2.85;2.65;;;10.80;99.90;;;;;;5117430;28;20384;-83
2023/05/15 01:18:34;;;;;;;3.25;2.95;;;10.70;99.90;;;;;;5100578;28;20377;-81
2023/05/15 01:21:06;;;;;;;3.00;2.70;;;10.80;99.90;;;;;;5118895;28;20433;-83
2023/05/15 01:24:10;;;;;;;2.60;2.40;;;10.80;99.90;;;;;;5100157;28;20377;-83
2023/05/15 01:27:06;;;;;;;2.95;2.75;;;10.80;99.90;;;;;;5112105;28;20396;-83
2023/05/15 01:29:54;;;;;;;3.00;2.80;;;10.80;99.90;;;;;;5119829;28;20434;-83
2023/05/15 01:32:28;;;;;;;2.90;2.60;;;10.90;99.90;;;;;;5099233;28;20427;-83
2023/05/15 01:35:10;;;;;;;3.05;2.80;;;10.90;99.90;;;;;;5119277;28;20731;-84
2023/05/15 01:37:40;;;;;;;3.88;2.75;;;10.80;99.90;;;;;;5099498;28;20429;-82
2023/05/15 01:40:07;;;;;;;3.20;2.90;;;10.80;99.90;;;;;;5113430;28;20378;-83
2023/05/15 01:42:35;;;;;;;3.60;2.70;;;10.90;99.90;;;;;;5101726;28;20372;-82
2023/05/15 01:45:07;;;;;;;2.67;2.47;;;10.90;99.90;;;;;;5118724;28;20785;-81
2023/05/15 01:47:40;;;;;;;2.78;2.58;;;10.90;99.90;;;;;;5098566;28;20412;-83
2023/05/15 01:50:09;;;;;;;3.80;2.78;;;10.90;99.90;;;;;;5099489;28;20874;-83
2023/05/15 01:52:38;;;;;;;3.42;2.78;;;10.80;99.90;;;;;;5099331;28;20904;-83
2023/05/15 01:55:07;;;;;;;3.08;2.70;;;10.80;99.90;;;;;;5099432;28;20379;-82
2023/05/15 01:57:34;;;;;;;3.10;2.90;;;10.80;99.90;;;;;;5098924;28;20420;-83
2023/05/15 02:00:00;;;;;;;3.10;2.80;;;10.80;99.90;;;;;;5117012;28;20388;-82
2023/05/15 02:02:27;;;;;;;3.00;2.70;;;10.90;99.90;;;;;;5118713;28;20379;-81
2023/05/15 02:04:54;;;;;;;3.20;2.90;;;10.90;99.90;;;;;;5099301;28;20388;-83
2023/05/15 02:07:20;;;;;;;2.95;2.75;;;10.90;99.90;;;;;;5117129;28;20404;-83
2023/05/15 02:09:47;;;;;;;3.63;2.88;;;10.90;99.90;;;;;;5098997;28;20890;-83
2023/05/15 02:12:13;;;;;;;3.10;2.80;;;10.80;99.90;;;;;;5118289;28;20392;-83
2023/05/15 02:14:40;;;;;;;3.65;3.03;;;10.80;99.90;;;;;;5118958;28;20372;-83
2023/05/15 02:17:06;;;;;;;4.32;3.10;;;10.70;99.90;;;;;;5115761;28;20781;-82
2023/05/15 02:19:32;;;;;;;2.90;2.70;;;10.70;99.90;;;;;;5117509;28;20448;-83
2023/05/15 02:21:57;;;;;;;3.20;2.80;;;10.60;99.90;;;;;;5118407;28;20467;-83
2023/05/15 02:24:23;;;;;;;2.50;2.30;;;10.60;99.90;;;;;;5117494;28;20380;-83
2023/05/15 02:27:25;;;;;;;3.80;3.03;;;10.60;99.90;;;;;;5097586;28;20404;-83
2023/05/15 02:30:19;;;;;;;3.10;2.90;;;10.70;99.90;;;;;;5098456;28;20408;-83
2023/05/15 02:33:00;;;;;;;2.70;2.50;;;10.60;99.90;;;;;;5097844;28;20384;-83
2023/05/15 02:35:51;;;;;;;2.90;2.70;;;10.60;99.90;;;;;;5098191;28;20384;-83
2023/05/15 02:38:21;;;;;;;2.70;2.50;;;10.60;99.90;;;;;;5118764;28;20373;-82
2023/05/15 02:40:48;;;;;;;4.03;3.15;;;10.70;99.90;;;;;;5118183;28;20396;-83
2023/05/15 02:43:16;;;;;;;4.32;3.13;;;10.60;99.90;;;;;;5118473;28;20917;-83
2023/05/15 02:45:45;;;;;;;3.00;2.80;;;10.60;99.90;;;;;;5120402;28;20391;-81
2023/05/15 02:48:11;;;;;;;3.22;2.92;;;10.60;99.90;;;;;;5113493;28;20397;-81
2023/05/15 02:50:37;;;;;;;2.80;2.60;;;10.60;99.90;;;;;;5132057;28;20384;-81
2023/05/15 02:53:04;;;;;;;2.92;2.70;;;10.60;99.90;;;;;;5131200;28;20357;-81
2023/05/15 02:55:30;;;;;;;2.50;2.30;;;10.60;99.90;;;;;;5124323;28;20369;-83
2023/05/15 02:57:56;;;;;;;3.20;2.90;;;10.50;99.90;;;;;;5100945;28;20471;-83
2023/05/15 03:00:22;;;;;;;3.40;3.10;;;10.60;99.90;;;;;;5121507;28;20400;-83
2023/05/15 03:02:48;;;;;;;3.83;2.90;;;10.60;99.90;;;;;;5099808;28;20406;-83
2023/05/15 03:05:13;;;;;;;3.60;3.30;;;10.60;99.90;;;;;;5119479;28;20422;-82
2023/05/15 03:07:40;;;;;;;3.27;2.97;;;10.50;99.90;;;;;;5117997;28;20452;-83
2023/05/15 03:10:06;;;;;;;3.80;3.38;;;10.40;99.90;;;;;;5115647;28;20377;-82
2023/05/15 03:12:31;;;;;;;3.30;3.00;;;10.30;99.90;;;;;;5115958;28;20373;-82
2023/05/15 03:14:57;;;;;;;3.10;2.90;;;10.30;99.90;;;;;;5097087;28;20948;-82
2023/05/15 03:17:23;;;;;;;3.25;2.95;;;10.30;99.90;;;;;;5114382;28;20492;-83
2023/05/15 03:19:48;;;;;;;3.67;3.05;;;10.10;99.90;;;;;;5096754;28;20384;-83
2023/05/15 03:22:14;;;;;;;4.35;3.38;;;10.20;99.90;;;;;;5115149;28;20384;-83
2023/05/15 03:24:39;;;;;;;3.10;2.90;;;10.10;99.90;;;;;;5089307;28;20939;-82
2023/05/15 03:27:05;;;;;;;3.90;3.00;;;10.10;99.90;;;;;;5112950;28;20404;-83
2023/05/15 03:29:30;;;;;;;3.08;2.88;;;10.00;99.90;;;;;;5095265;28;20815;-83
2023/05/15 03:31:56;;;;;;;4.05;2.90;;;10.10;99.90;;;;;;5104320;28;20428;-83
2023/05/15 03:34:21;;;;;;;3.50;3.15;;;10.10;99.90;;;;;;5109862;28;20389;-82
2023/05/15 03:36:47;;;;;;;3.20;2.90;;;10.10;99.90;;;;;;5109126;28;20741;-82
2023/05/15 03:39:12;;;;;;;3.30;3.00;;;10.00;99.90;;;;;;5095858;28;20384;-83
2023/05/15 03:41:38;;;;;;;4.57;3.45;;;10.00;99.90;;;;;;5114088;28;20390;-82
2023/05/15 03:44:04;;;;;;;4.00;3.17;;;10.00;99.90;;;;;;5096781;28;20377;-83
2023/05/15 03:46:29;;;;;;;4.53;3.50;;;10.00;99.90;;;;;;5094923;28;21045;-83
2023/05/15 03:48:55;;;;;;;3.60;3.30;;;9.90;99.90;;;;;;5113042;28;20802;-83
2023/05/15 03:51:22;;;;;;;3.38;3.17;;;9.80;99.90;;;;;;5111591;28;20380;-83
2023/05/15 03:53:48;;;;;;;4.90;3.20;;;9.80;99.90;;;;;;5108521;28;20381;-83
2023/05/15 03:56:14;;;;;;;3.60;3.30;;;9.80;99.90;;;;;;5111227;28;20426;-83
2023/05/15 03:58:40;;;;;;;3.47;2.75;;;9.80;99.90;;;;;;5113363;28;20388;-83
2023/05/15 04:01:06;;;;;;;3.85;3.00;;;9.90;99.90;;;;;;5093576;23;20446;-83
2023/05/15 04:03:32;;;;;;;3.65;3.10;;;9.90;99.90;;;;;;5066840;28;20385;-83
2023/05/15 04:05:57;;;;;;;3.30;2.90;;;9.90;99.90;;;;;;5057574;28;20551;-83
2023/05/15 04:08:23;;;;;;;3.60;3.30;;;9.80;99.90;;;;;;5063012;28;20402;-83
2023/05/15 04:10:49;;;;;;;3.50;3.20;;;9.80;99.90;;;;;;5044907;28;20419;-83
2023/05/15 04:13:15;;;;;;;3.90;3.60;;;9.80;99.90;;;;;;5066684;28;20761;-83
2023/05/15 04:15:40;;;;;;;3.03;2.83;;;9.70;99.90;;;;;;5033300;28;20387;-83
2023/05/15 04:18:06;;;;;;;4.30;2.73;;;9.70;99.90;;;;;;5033663;28;20931;-83
2023/05/15 04:20:32;;;;;;;3.60;3.30;;;9.70;99.90;;;;;;5034590;28;20470;-83
2023/05/15 04:22:58;;;;;;;3.40;3.10;;;9.70;99.90;;;;;;5030732;28;20453;-84
2023/05/15 04:25:24;;;;;;;4.00;3.20;;;9.70;99.90;;;;;;5031557;28;20383;-84
2023/05/15 04:27:49;;;;;;;3.42;3.13;;;9.80;99.90;;;;;;5030693;28;20407;-84
2023/05/15 04:30:15;;;;;;;3.25;2.95;;;9.70;99.90;;;;;;5029615;28;20466;-83
2023/05/15 04:32:41;;;;;;;3.85;3.00;;;9.80;99.90;;;;;;5029591;28;21007;-83
2023/05/15 04:35:10;;;;;;;3.40;3.10;;;9.90;99.90;;;;;;5044570;28;20388;-83
2023/05/15 04:37:40;;;;;;;3.70;3.40;;;9.80;99.90;;;;;;5053710;28;20397;-84
2023/05/15 04:40:06;;;;;;;3.50;3.20;;;9.90;99.90;;;;;;5066544;28;20434;-83
2023/05/15 04:42:32;;;;;;;6.80;3.38;;;9.90;99.90;;;;;;5055185;28;20890;-83
2023/05/15 04:44:58;;;;;;;3.38;2.95;;;10.10;99.90;;;;;;5038552;28;20425;-83
2023/05/15 04:47:24;;;;;;;4.97;3.50;;;10.10;99.90;;;;;;5047869;28;20927;-84
2023/05/15 04:49:50;;;;;;;3.40;3.10;;;10.10;99.90;;;;;;5037068;28;20394;-83
2023/05/15 04:52:16;;;;;;;3.50;3.20;;;10.10;99.90;;;;;;5046843;28;20391;-83
2023/05/15 04:54:41;;;;;;;3.70;3.40;;;10.20;99.90;;;;;;5037102;28;20524;-84
2023/05/15 04:57:07;;;;;;;3.40;3.20;;;10.20;99.90;;;;;;5033468;28;20425;-83
2023/05/15 04:59:33;;;;;;;5.00;3.28;;;10.20;99.90;;;;;;5059452;28;20403;-84
2023/05/15 05:01:59;;;;;;;3.40;3.10;;;10.10;99.90;;;;;;5035064;28;20402;-83
2023/05/15 05:04:25;;;;;;;3.08;2.85;;;10.20;99.90;;;;;;5040731;28;21031;-83
2023/05/15 05:06:50;;;;;;;3.10;2.80;;;10.30;99.90;;;;;;5043605;28;20403;-83
2023/05/15 05:09:18;;;;;;;3.42;3.13;;;10.30;99.90;;;;;;5035022;28;20390;-83
2023/05/15 05:11:43;;;;;;;3.65;3.35;;;10.20;99.90;;;;;;5035716;28;20420;-83
2023/05/15 05:14:13;;;;;;;3.40;3.10;;;10.30;99.90;;;;;;5036110;28;20395;-84
2023/05/15 05:16:39;;;;;;;3.20;2.90;;;10.30;99.90;;;;;;5037125;28;20401;-85
2023/05/15 05:19:05;;;;;;;3.70;3.40;;;10.30;99.90;;;;;;5036876;28;20395;-84
2023/05/15 05:21:31;;;;;;;3.92;3.50;;;10.20;99.90;;;;;;5034711;28;20422;-84
2023/05/15 05:23:57;;;;;;;3.40;3.10;;;10.40;99.90;;;;;;5038461;28;20387;-85
2023/05/15 05:26:23;;;;;;;3.10;2.90;;;10.30;99.90;;;;;;5043320;28;20413;-84
2023/05/15 05:28:48;;;;;;;4.57;3.50;;;10.30;99.90;;;;;;5036341;28;20387;-85
2023/05/15 05:31:14;;;;;;;4.37;3.97;;;10.40;99.90;;;;;;5035128;28;21077;-84
2023/05/15 05:33:39;;;;;;;4.80;3.40;;;10.40;99.90;;;;;;5036685;28;20387;-84
2023/05/15 05:36:05;;;;;;;4.00;3.60;;;10.50;99.90;;;;;;5052575;28;20418;-83
2023/05/15 05:38:32;;;;;;;3.60;3.30;;;10.50;99.90;;;;;;5036803;28;20429;-84
2023/05/15 05:40:57;;;;;;;4.05;3.65;;;10.50;99.90;;;;;;5034425;28;20391;-84
2023/05/15 05:43:25;;;;;;;3.30;3.10;;;10.50;99.90;;;;;;5034073;28;20394;-84
2023/05/15 05:45:50;;;;;;;3.95;3.60;;;10.70;99.90;;;;;;5034940;28;20391;-84
2023/05/15 05:48:16;;;;;;;3.80;3.17;;;10.60;99.90;;;;;;5034949;28;20962;-84
2023/05/15 05:50:41;;;;;;;3.73;3.00;;;10.60;99.90;;;;;;5033066;28;20773;-84
2023/05/15 05:53:07;;;;;;;3.10;2.90;;;10.60;99.90;;;;;;5034085;28;20750;-83
2023/05/15 05:55:32;;;;;;;3.50;3.20;;;10.60;99.90;;;;;;5034742;28;20429;-84
2023/05/15 05:57:58;;;;;;;4.57;3.15;;;10.70;99.90;;;;;;5033393;28;20394;-83
2023/05/15 06:00:24;;;;;;;3.40;3.10;;;10.80;99.90;;;;;;5034427;28;20402;-83
2023/05/15 06:02:55;;;;;;;3.50;3.20;;;10.90;99.90;;;;;;5034888;28;20437;-83
2023/05/15 06:05:22;;;;;;;3.10;2.80;;;10.90;99.90;;;;;;5032872;28;20972;-83
2023/05/15 06:07:51;;;;;;;3.30;3.00;;;11.00;99.90;;;;;;5036389;28;20411;-83
2023/05/15 06:10:17;;;;;;;3.43;3.10;;;11.00;99.90;;;;;;5040049;28;20403;-83
2023/05/15 06:12:43;;;;;;;3.25;3.03;;;11.00;99.90;;;;;;5039941;28;20383;-83
2023/05/15 06:15:09;;;;;;;3.17;2.90;;;11.10;99.90;;;;;;5067113;28;20470;-84
2023/05/15 06:17:34;;;;;;;3.80;2.80;;;11.20;99.90;;;;;;5065950;28;20402;-84
2023/05/15 06:20:00;;;;;;;2.80;2.60;;;11.20;99.90;;;;;;5036595;28;20386;-84
2023/05/15 06:22:25;;;;;;;3.90;3.20;;;11.30;99.90;;;;;;5038573;28;20494;-84
2023/05/15 06:24:51;;;;;;;3.40;3.10;;;11.30;99.90;;;;;;5041131;28;20488;-83
2023/05/15 06:27:16;;;;;;;3.47;3.20;;;11.30;99.90;;;;;;5040786;28;20426;-82
2023/05/15 06:29:42;;;;;;;3.10;2.80;;;11.30;99.90;;;;;;5068427;28;20403;-83
2023/05/15 06:32:08;;;;;;;3.10;2.90;;;11.40;99.90;;;;;;5036090;28;20423;-83
2023/05/15 06:34:33;;;;;;;3.50;3.20;;;11.40;99.90;;;;;;5054581;28;21117;-83
2023/05/15 06:36:59;;;;;;;3.17;2.97;;;11.40;99.90;;;;;;5031171;28;20417;-84
2023/05/15 06:39:25;;;;;;;3.20;2.90;;;11.40;99.90;;;;;;5040819;28;20912;-83
2023/05/15 06:41:56;;;;;;;3.50;3.20;;;11.50;99.90;;;;;;5033456;28;20399;-83
2023/05/15 06:44:22;;;;;;;3.20;2.90;;;11.60;99.90;;;;;;5032635;28;20413;-83
2023/05/15 06:46:48;;;;;;;3.22;2.92;;;11.50;99.90;;;;;;5027107;28;20411;-83
2023/05/15 06:49:13;;;;;;;3.20;2.63;;;11.50;99.90;;;;;;5043207;28;20387;-83
2023/05/15 06:51:39;;;;;;;3.37;3.07;;;11.60;99.90;;;;;;5038619;28;20771;-83
2023/05/15 06:54:05;;;;;;;3.45;3.15;;;11.70;99.90;;;;;;5046908;28;20409;-83
2023/05/15 06:56:30;;;;;;;3.43;3.13;;;11.70;99.90;;;;;;5039651;28;20897;-84
2023/05/15 06:58:56;;;;;;;3.20;2.90;;;11.80;99.90;;;;;;5043965;28;20454;-83
2023/05/15 07:01:21;;;;;;;4.13;3.73;;;11.90;99.90;;;;;;5040686;28;20531;-84
2023/05/15 07:03:47;;;;;;;3.40;3.10;;;12.00;99.90;;;;;;5043628;28;20398;-84
2023/05/15 07:06:12;;;;;;;3.93;3.10;;;12.10;99.90;;;;;;5041939;28;20495;-83
2023/05/15 07:08:38;;;;;;;3.13;2.83;;;12.40;99.90;;;;;;5048569;28;20394;-84
2023/05/15 07:11:03;;;;;;;3.97;2.80;;;12.30;99.90;;;;;;5048509;28;20472;-84
2023/05/15 07:13:29;;;;;;;2.70;2.50;;;12.40;99.90;;;;;;5051466;28;20744;-84
2023/05/15 07:15:54;;;;;;;3.10;2.80;;;12.40;99.90;;;;;;5050938;28;20384;-84
2023/05/15 07:18:20;;;;;;;3.20;2.90;;;12.50;99.90;;;;;;5050036;28;20412;-83
2023/05/15 07:20:45;;;;;;;2.97;2.70;;;12.60;99.90;;;;;;5046545;28;20405;-82
2023/05/15 07:23:11;;;;;;;4.10;2.80;;;12.70;99.90;;;;;;5046776;28;20497;-84
2023/05/15 07:25:36;;;;;;;3.10;2.70;;;12.70;99.90;;;;;;5039934;28;20466;-84
2023/05/15 07:28:02;;;;;;;3.10;2.80;;;12.90;99.90;;;;;;5032318;28;20414;-85
2023/05/15 07:30:27;;;;;;;2.80;2.50;;;12.90;99.90;;;;;;5031474;28;20387;-85
2023/05/15 07:32:53;;;;;;;2.78;2.58;;;12.90;99.90;;;;;;5031219;28;20426;-85
2023/05/15 07:35:19;;;;;;;2.90;2.60;;;12.90;99.90;;;;;;5031375;28;20808;-84
2023/05/15 07:37:45;;;;;;;3.20;3.00;;;13.00;99.90;;;;;;5031399;28;20395;-85
2023/05/15 07:40:11;;;;;;;2.95;2.75;;;12.80;99.90;;;;;;5063847;28;20391;-85
2023/05/15 07:42:38;;;;;;;3.38;3.10;;;12.70;99.90;;;;;;5030302;28;21043;-85
2023/05/15 07:45:05;;;;;;;3.20;3.00;;;12.90;99.90;;;;;;5030411;28;20399;-85
2023/05/15 07:47:30;;;;;;;3.70;3.40;;;13.20;99.90;;;;;;5029210;28;20410;-85
2023/05/15 07:49:56;;;;;;;4.07;3.33;;;13.30;99.90;;;;;;5030311;28;20962;-85
2023/05/15 07:52:21;;;;;;;3.40;2.87;;;13.30;99.90;;;;;;5029675;28;20904;-85
2023/05/15 07:54:47;;;;;;;3.40;3.10;;;13.40;99.90;;;;;;5030348;28;20920;-85
2023/05/15 07:57:13;;;;;;;3.40;3.10;;;13.50;99.90;;;;;;5031177;28;20391;-85
2023/05/15 07:59:38;;;;;;;3.27;3.07;;;13.50;99.90;;;;;;5030676;28;20387;-85
2023/05/15 08:02:04;;;;;;;3.00;2.80;;;13.50;99.90;;;;;;5032133;28;20410;-85
2023/05/15 08:04:29;;;;;;;3.08;2.88;;;13.50;99.90;;;;;;5033222;28;20403;-84
2023/05/15 08:06:55;;;;;;;3.30;3.00;;;13.60;99.90;;;;;;5064197;28;20463;-85
2023/05/15 08:09:21;;;;;;;5.00;4.50;;;13.50;99.90;;;;;;5042563;28;20935;-84
2023/05/15 08:11:46;;;;;;;3.87;3.20;;;13.70;99.90;;;;;;5030368;28;20380;-84
2023/05/15 08:14:12;;;;;;;3.90;3.60;;;13.80;99.90;;;;;;5030770;28;20419;-84
2023/05/15 08:16:37;;;;;;;3.85;3.55;;;14.30;99.90;;;;;;5036270;28;20796;-85
2023/05/15 08:19:05;;;;;;;3.90;3.60;;;14.40;99.90;;;;;;5045849;28;20798;-85
2023/05/15 08:21:31;;;;;;;3.53;3.23;;;14.70;99.90;;;;;;5053980;28;20532;-84
2023/05/15 08:23:57;;;;;;;3.60;3.30;;;14.50;99.90;;;;;;5055870;28;20943;-84
2023/05/15 08:26:23;;;;;;;5.05;3.95;;;14.80;99.90;;;;;;5052067;28;20409;-84
2023/05/15 08:28:48;;;;;;;4.10;3.70;;;14.40;99.90;;;;;;5034478;28;20928;-85
2023/05/15 08:31:14;;;;;;;4.22;3.83;;;14.70;99.90;;;;;;5033765;28;20394;-85
2023/05/15 08:33:40;;;;;;;4.80;4.40;;;15.00;99.90;;;;;;5033812;28;20391;-85
2023/05/15 08:36:06;;;;;;;4.70;4.30;;;15.20;99.90;;;;;;5038967;28;20395;-85
2023/05/15 08:38:31;;;;;;;5.13;4.72;;;15.10;99.90;;;;;;5043200;28;20402;-84
2023/05/15 08:41:06;;;;;;;4.50;4.10;;;15.00;99.90;;;;;;5051072;28;20393;-84
2023/05/15 08:43:35;;;;;;;5.60;5.10;;;15.10;99.90;;;;;;5051837;28;20382;-84
2023/05/15 08:46:01;;;;;;;4.40;4.00;;;15.00;99.90;;;;;;5035487;28;20418;-84
2023/05/15 08:48:28;;;;;;;5.00;4.50;;;15.10;99.90;;;;;;5034947;28;20422;-84
2023/05/15 08:50:57;;;;;;;4.85;4.45;;;15.10;99.90;;;;;;5035546;28;20387;-84
2023/05/15 08:53:22;;;;;;;5.20;4.80;;;14.90;99.90;;;;;;5035883;28;20465;-84
2023/05/15 08:55:49;;;;;;;5.27;4.87;;;15.10;99.90;;;;;;5035172;28;20395;-85
2023/05/15 08:58:15;;;;;;;5.93;5.53;;;15.20;99.90;;;;;;5043834;28;20443;-85
2023/05/15 09:00:41;;;;;;;5.93;5.32;;;15.10;99.90;;;;;;5048098;28;20902;-84
2023/05/15 09:03:14;;;;;;;6.47;5.90;;;15.00;99.90;;;;;;5055337;28;20396;-85
2023/05/15 09:05:40;;;;;;;5.60;5.20;;;15.10;99.90;;;;;;5040876;28;20473;-84
2023/05/15 09:08:07;;;;;;;6.07;5.57;;;15.20;99.90;;;;;;5037202;28;20434;-84
2023/05/15 09:10:34;;;;;;;6.10;5.50;;;15.10;99.90;;;;;;5041586;28;20383;-84
2023/05/15 09:13:01;;;;;;;5.90;5.40;;;15.00;99.90;;;;;;5036853;28;20449;-84
2023/05/15 09:15:27;;;;;;;6.50;5.90;;;15.10;99.90;;;;;;5036958;28;20467;-84
2023/05/15 09:17:53;;;;;;;5.73;5.20;;;15.10;99.90;;;;;;5039783;28;20441;-84
2023/05/15 09:20:36;;;;;;;5.80;5.30;;;15.30;99.90;;;;;;5038009;28;20406;-84
2023/05/15 09:23:03;;;;;;;6.20;5.30;;;15.40;99.90;;;;;;5037943;28;20395;-84
2023/05/15 09:25:51;;;;;;;5.38;4.97;;;15.60;99.90;;;;;;5039331;28;20391;-84
2023/05/15 09:28:29;;;;;;;6.00;5.50;;;15.60;99.90;;;;;;5039282;28;20479;-84
2023/05/15 09:31:00;;;;;;;6.05;5.45;;;15.60;99.90;;;;;;5036211;28;20395;-84
2023/05/15 09:33:58;;;;;;;5.60;4.90;;;15.60;99.90;;;;;;5038433;28;20386;-84
2023/05/15 09:36:23;;;;;;;5.70;5.30;;;15.80;99.90;;;;;;5018813;28;20400;-84
2023/05/15 09:39:00;;;;;;;6.67;6.07;;;15.70;99.90;;;;;;5020375;28;20397;-84
2023/05/15 09:41:27;;;;;;;5.82;5.32;;;15.60;99.90;;;;;;5018055;28;20391;-84
2023/05/15 09:43:55;;;;;;;5.50;5.00;;;15.80;99.90;;;;;;5017211;28;20427;-84
2023/05/15 09:46:21;;;;;;;5.65;5.25;;;15.90;99.90;;;;;;5017159;28;20946;-83
2023/05/15 09:48:48;;;;;;;5.60;5.10;;;16.10;99.90;;;;;;5019109;28;20879;-84
2023/05/15 09:51:17;;;;;;;5.30;4.80;;;16.20;99.90;;;;;;5021526;28;20457;-84
2023/05/15 09:53:51;;;;;;;5.70;5.20;;;16.30;99.90;;;;;;5036567;28;20391;-84
2023/05/15 09:56:17;;;;;;;5.88;5.38;;;16.30;99.90;;;;;;5034330;28;20388;-84
2023/05/15 09:58:54;;;;;;;5.60;5.10;;;15.90;99.90;;;;;;5039053;28;20453;-84
2023/05/15 10:01:24;;;;;;;5.53;5.03;;;15.50;99.90;;;;;;5056157;23;20441;-86
2023/05/15 10:04:00;;;;;;;5.38;4.88;;;15.80;99.90;;;;;;5086573;28;20744;-85
2023/05/15 10:06:26;;;;;;;4.88;4.47;;;16.30;99.90;;;;;;5054453;28;20410;-85
2023/05/15 10:08:56;;;;;;;5.30;4.60;;;16.20;99.90;;;;;;5054082;28;20470;-85
2023/05/15 10:11:23;;;;;;;5.40;4.32;;;16.30;99.90;;;;;;5052227;28;20431;-85
2023/05/15 10:13:48;;;;;;;4.60;4.20;;;16.20;99.90;;;;;;5054424;28;20911;-85
2023/05/15 10:16:19;;;;;;;4.80;4.40;;;16.50;99.90;;;;;;5053798;28;20470;-85
2023/05/15 10:18:46;;;;;;;4.07;3.78;;;16.40;99.90;;;;;;5053266;28;20432;-85
2023/05/15 10:21:12;;;;;;;4.70;4.20;;;16.40;90.70;;;;;;5052680;28;20389;-86
2023/05/15 10:23:40;;;;;;;4.05;3.75;;;16.30;90.30;;;;;;5052610;28;20401;-86
2023/05/15 10:26:25;;;;;;;4.40;3.90;;;16.30;99.90;;;;;;5059024;28;20381;-83
2023/05/15 10:28:51;;;;;;;3.97;3.67;;;16.30;92.40;;;;;;5037060;28;20383;-84
2023/05/15 10:31:18;;;;;;;3.80;3.50;;;16.30;41.20;;;;;;5037130;28;20440;-83
2023/05/15 10:33:46;;;;;;;4.07;3.67;;;16.20;62.90;;;;;;5034498;28;20422;-85
2023/05/15 10:36:13;;;;;;;5.05;4.13;;;16.30;93.90;;;;;;5048010;28;20378;-85
2023/05/15 10:38:39;;;;;;;4.17;3.70;;;16.70;52.90;;;;;;5042619;28;20879;-84
2023/05/15 10:41:07;;;;;;;3.67;3.35;;;17.10;38.70;;;;;;5055668;28;20454;-84
2023/05/15 10:43:34;;;;;;;3.35;3.10;;;16.60;29.50;;;;;;5057739;28;20394;-85
2023/05/15 10:45:59;;;;;;;4.00;3.60;;;16.70;29.20;;;;;;5052143;28;20381;-85
2023/05/15 10:48:25;;;;;;;3.50;3.20;;;17.20;27.70;;;;;;5043135;28;20420;-84
2023/05/15 10:50:51;;;;;;;4.30;3.30;;;17.20;25.80;;;;;;5037236;28;20451;-84
2023/05/15 10:53:18;;;;;;;3.00;2.80;;;17.20;12.50;;;;;;5050614;28;21023;-84
2023/05/15 10:55:44;;;;;;;3.70;3.40;;;17.50;15.80;;;;;;5037121;28;20382;-85
2023/05/15 10:58:10;;;;;;;3.63;3.33;;;17.60;5.10;;;;;;5032718;28;20928;-86
2023/05/15 11:00:43;;;;;;;3.67;3.37;;;17.30;5.00;;;;;;5033529;28;20387;-87
2023/05/15 11:03:13;;;;;;;2.40;2.20;;;17.50;3.50;;;;;;5035337;28;20488;-86
2023/05/15 11:06:08;;;;;;;3.03;2.83;;;17.50;8.20;;;;;;5051422;28;20413;-85
2023/05/15 11:08:35;;;;;;;3.00;2.65;;;17.60;2.90;;;;;;5034661;28;20455;-85
2023/05/15 11:11:00;;;;;;;2.80;2.60;;;17.90;1.00;;;;;;5036720;28;20389;-85
2023/05/15 11:13:26;;;;;;;3.00;2.80;;;17.90;1.00;;;;;;5055663;28;20377;-85
2023/05/15 11:15:52;;;;;;;2.70;2.50;;;17.80;1.00;;;;;;5053849;28;20374;-85
2023/05/15 11:18:19;;;;;;;3.50;2.72;;;17.90;1.00;;;;;;5071011;28;20423;-85
2023/05/15 11:20:50;;;;;;;2.65;2.45;;;18.10;1.00;;;;;;5072319;28;20384;-86
2023/05/15 11:23:20;;;;;;;2.60;2.40;;;18.00;1.00;;;;;;5054127;28;20437;-86
2023/05/15 11:25:55;;;;;;;2.95;2.75;;;18.30;1.00;;;;;;5039082;28;20431;-86
2023/05/15 11:28:24;;;;;;;3.20;2.90;;;18.80;1.00;;;;;;5034445;28;20409;-86
2023/05/15 11:30:51;;;;;;;3.35;3.05;;;18.80;1.00;;;;;;5037119;28;20800;-86
2023/05/15 11:33:19;;;;;;;3.30;3.00;;;19.20;1.00;;;;;;5054993;28;20454;-85
2023/05/15 11:35:55;;;;;;;3.20;3.00;;;18.80;1.00;;;;;;5055015;28;20401;-86
2023/05/15 11:38:25;;;;;;;3.10;2.80;;;18.20;1.00;;;;;;5054169;28;20878;-85
2023/05/15 11:41:01;;;;;;;3.08;2.78;;;19.30;1.00;;;;;;5053447;28;20396;-88
2023/05/15 11:43:34;;;;;;;3.83;3.20;;;20.50;1.00;;;;;;5072250;28;20470;-85
2023/05/15 11:46:11;;;;;;;3.50;3.20;;;20.10;1.00;;;;;;5070933;28;20395;-83
2023/05/15 11:48:40;;;;;;;3.40;3.10;;;21.10;1.00;;;;;;5075881;28;20378;-84
2023/05/15 11:51:20;;;;;;;3.40;3.10;;;20.90;1.00;;;;;;5047562;28;20419;-84
2023/05/15 11:53:48;;;;;;;2.90;2.70;;;21.50;1.00;;;;;;5062370;28;20783;-82
2023/05/15 11:56:21;;;;;;;3.45;3.15;;;20.70;1.00;;;;;;5041560;28;20378;-83
2023/05/15 11:58:51;;;;;;;3.30;2.50;;;22.20;1.00;;;;;;5045791;28;20401;-83
2023/05/15 12:01:17;;;;;;;3.65;3.35;;;21.80;1.00;;;;;;5079469;28;20401;-84
2023/05/15 12:03:45;;;;;;;3.73;3.43;;;20.60;1.00;;;;;;5065794;28;20421;-81
2023/05/15 12:06:11;;;;;;;3.42;3.13;;;20.00;1.00;;;;;;5070086;28;20533;-81
2023/05/15 12:08:37;;;;;;;3.15;2.95;;;20.60;1.00;;;;;;5063758;28;20415;-81
2023/05/15 12:11:05;;;;;;;3.55;3.25;;;21.90;1.00;;;;;;5080962;28;20887;-82
2023/05/15 12:13:31;;;;;;;3.00;2.80;;;20.60;1.00;;;;;;5085677;28;20379;-80
2023/05/15 12:15:57;;;;;;;4.07;3.70;;;19.40;1.00;;;;;;5081920;28;20380;-81
2023/05/15 12:18:23;;;;;;;3.92;3.53;;;19.30;1.00;;;;;;5050884;28;20720;-80
2023/05/15 12:20:51;;;;;;;4.00;3.60;;;19.50;1.00;;;;;;5065560;28;20420;-80
2023/05/15 12:23:20;;;;;;;3.58;3.28;;;19.00;1.00;;;;;;5049269;28;20400;-80
2023/05/15 12:25:48;;;;;;;4.20;3.90;;;20.20;1.00;;;;;;5066486;28;20433;-81
2023/05/15 12:28:13;;;;;;;4.70;4.30;;;21.00;1.00;;;;;;5067509;28;20401;-80
2023/05/15 12:30:41;;;;;;;4.40;4.03;;;22.10;1.00;;;;;;5066548;28;20486;-81
2023/05/15 12:33:09;;;;;;;3.90;3.60;;;23.10;1.00;;;;;;5086321;28;20384;-81
2023/05/15 12:35:42;;;;;;;4.15;3.75;;;22.00;1.00;;;;;;5086407;28;20387;-80
2023/05/15 12:38:14;;;;;;;4.80;4.40;;;20.90;1.00;;;;;;5085290;28;20388;-82
2023/05/15 12:40:42;;;;;;;4.50;4.20;;;19.40;1.00;;;;;;5048533;28;20404;-81
2023/05/15 12:43:09;;;;;;;4.80;4.40;;;20.30;1.00;;;;;;5048689;28;20455;-81
2023/05/15 12:45:38;;;;;;;4.55;4.00;;;20.60;1.00;;;;;;5048344;28;20400;-83
2023/05/15 12:48:06;;;;;;;3.90;3.60;;;20.70;1.00;;;;;;5043805;28;20405;-81
2023/05/15 12:50:32;;;;;;;4.22;3.92;;;20.60;1.00;;;;;;5065078;28;20815;-82